메인 페이지
METAR-TAF:

METAR-TAF

공항 :

쿠웨이트 국제공항

쿠웨이트, 쿠웨이트

위도: 29-13N, 경도: 047-59E, 고도: 55m

현재 날씨관측

예보는 1 시간 7분 전, 15:00시(UTC)에 발표되었습니다.
북북동5kt
온도 19°C
습도 88%
기압 1022 hPa
시정 10km 이상
고도 4000ft 상공 구름 조금

METAR: OKBK 181500Z 03005KT 9999 FEW040 19/17 Q1022 NOSIG

시각: 19:07 (16:07 UTC)

예보

예보는 5 시간 22분 전, 10:45시(UTC)에 발표되었습니다.
예보 대상 시간: 18일 12시부터 19일 18시까지 (UTC)
여러 방향의 바람 3kt
시정: 8000m
맑음
전환 중
18일 14시부터 18일 16시까지 (UTC)
북북서10kt

TAF: OKBK 181045Z 1812/1918 VRB03KT 8000 SKC BECMG 1814/1816 34010KT

4,000개 이상의 공항 관측 자료 및 예보 (METAR 및 TAF 보고).

지도상에서 검색 가능한 기상관측소가 노란 점과 빨간 점으로 표시되어 있습니다.

기상관측소 명을 보려면 표시 위로 마우스를 이동하세요.

날씨 관측과 예보를 보려면 클릭하세요.

지도 변경 : 확대하려면 엑스 표시가 있는 녹색 버튼, 축소하려면 빼기 표시가 있는 녹색 버튼, 다음 페이지의 지도를 보려면 녹색 화살표를 클릭하세요.


METAR-TAF: